createdAt,value
2019-05-25T00:00:01.043Z,5.55
2019-05-25T00:00:40.079Z,5.73
2019-05-25T00:01:19.271Z,5.90
2019-05-25T00:01:59.308Z,5.70
2019-05-25T00:02:38.264Z,5.53
2019-05-25T00:03:18.164Z,6.33
2019-05-25T00:03:57.679Z,5.90
2019-05-25T00:04:36.175Z,5.80
2019-05-25T00:05:15.723Z,6.10
2019-05-25T00:05:55.210Z,5.80
2019-05-25T00:06:34.103Z,5.42
2019-05-25T00:07:13.751Z,5.65
2019-05-25T00:07:53.667Z,5.72
2019-05-25T00:08:32.371Z,5.05
2019-05-25T00:09:12.684Z,4.95
2019-05-25T00:09:52.888Z,5.67
2019-05-25T00:10:32.679Z,5.10
2019-05-25T00:11:12.102Z,5.85
2019-05-25T00:11:51.617Z,5.83
2019-05-25T00:12:30.887Z,5.03
2019-05-25T00:13:10.583Z,6.45
2019-05-25T00:13:49.864Z,6.22
2019-05-25T00:14:28.533Z,5.70
2019-05-25T00:15:08.104Z,5.80
2019-05-25T00:15:47.408Z,5.80
2019-05-25T00:16:26.407Z,5.72
2019-05-25T00:17:05.909Z,6.62
2019-05-25T00:17:45.496Z,5.78
2019-05-25T00:18:24.634Z,5.40
2019-05-25T00:19:03.936Z,5.85
2019-05-25T00:19:44.051Z,6.35
2019-05-25T00:20:29.036Z,5.80
2019-05-25T00:21:09.256Z,5.62
2019-05-25T00:21:48.671Z,5.90
2019-05-25T00:22:33.311Z,5.83
2019-05-25T00:23:12.698Z,5.37
2019-05-25T00:23:52.305Z,5.35
2019-05-25T00:24:34.835Z,5.35
2019-05-25T00:25:13.860Z,5.45
2019-05-25T00:25:53.762Z,5.22
2019-05-25T00:26:33.193Z,6.33
2019-05-25T00:27:12.708Z,6.45
2019-05-25T00:27:52.060Z,5.35
2019-05-25T00:28:30.569Z,5.90
2019-05-25T00:29:10.167Z,6.03
2019-05-25T00:29:49.584Z,6.10
2019-05-25T00:30:28.427Z,5.25
2019-05-25T00:31:08.125Z,6.00
2019-05-25T00:31:54.289Z,5.33
2019-05-25T00:32:33.054Z,5.42
2019-05-25T00:33:12.435Z,10.05
2019-05-25T00:33:52.102Z,5.45
2019-05-25T00:34:31.492Z,6.12
2019-05-25T00:35:29.266Z,6.28
2019-05-25T00:36:10.460Z,5.95
2019-05-25T00:36:49.609Z,5.65
2019-05-25T00:37:29.237Z,6.45
2019-05-25T00:38:08.387Z,5.95
2019-05-25T00:38:47.660Z,5.85
2019-05-25T00:39:27.132Z,5.65
2019-05-25T00:40:06.170Z,5.97
2019-05-25T00:40:45.773Z,5.40
2019-05-25T00:41:25.644Z,6.15
2019-05-25T00:42:05.334Z,5.45
2019-05-25T00:42:45.115Z,6.37
2019-05-25T00:43:24.752Z,5.47
2019-05-25T00:44:04.310Z,6.00
2019-05-25T00:44:43.178Z,5.63
2019-05-25T00:45:22.999Z,4.58
2019-05-25T00:46:02.912Z,5.78
2019-05-25T00:46:42.039Z,5.63
2019-05-25T00:47:22.258Z,5.22
2019-05-25T00:48:19.727Z,4.70
2019-05-25T00:48:58.883Z,5.47
2019-05-25T00:49:38.466Z,5.53
2019-05-25T00:50:18.202Z,5.58
2019-05-25T00:50:57.451Z,5.03
2019-05-25T00:51:36.843Z,5.22
2019-05-25T00:52:16.471Z,5.10
2019-05-25T00:52:54.901Z,5.35
2019-05-25T00:53:34.524Z,5.05
2019-05-25T00:54:27.034Z,5.15
2019-05-25T00:54:54.807Z,4.90
2019-05-25T00:55:34.232Z,5.30
2019-05-25T00:56:13.187Z,5.42
2019-05-25T00:56:51.958Z,5.30
2019-05-25T00:57:38.954Z,5.00
2019-05-25T00:58:19.042Z,5.25
2019-05-25T00:58:57.911Z,5.58
2019-05-25T00:59:37.362Z,5.12
2019-05-25T01:00:20.736Z,5.47
2019-05-25T01:00:59.681Z,4.65
2019-05-25T01:01:39.319Z,4.70
2019-05-25T01:02:19.154Z,5.05
2019-05-25T01:02:58.259Z,5.47
2019-05-25T01:03:37.419Z,6.08
2019-05-25T01:04:16.342Z,4.97
2019-05-25T01:04:55.766Z,5.50
2019-05-25T01:05:35.422Z,4.65
2019-05-25T01:06:15.266Z,5.25
2019-05-25T01:06:54.615Z,4.95
2019-05-25T01:07:51.929Z,5.80
2019-05-25T01:08:32.399Z,5.45
2019-05-25T01:09:11.808Z,4.95
2019-05-25T01:09:51.743Z,5.97
2019-05-25T01:10:31.162Z,5.17
2019-05-25T01:11:10.784Z,5.10
2019-05-25T01:11:50.382Z,4.85
2019-05-25T01:12:30.063Z,5.10
2019-05-25T01:13:09.064Z,5.95
2019-05-25T01:13:48.647Z,5.00
2019-05-25T01:14:28.063Z,4.70
2019-05-25T01:15:08.219Z,5.25
2019-05-25T01:15:47.735Z,4.97
2019-05-25T01:16:27.194Z,4.80
2019-05-25T01:17:06.123Z,4.90
2019-05-25T01:17:45.801Z,5.05
2019-05-25T01:18:28.171Z,5.05
2019-05-25T01:19:07.238Z,5.60
2019-05-25T01:19:46.411Z,5.03
2019-05-25T01:20:25.977Z,5.12
2019-05-25T01:21:09.087Z,4.55
2019-05-25T01:21:48.504Z,4.80
2019-05-25T01:22:27.831Z,5.25
2019-05-25T01:23:19.675Z,5.15
2019-05-25T01:23:59.158Z,5.10
2019-05-25T01:24:44.728Z,5.40
2019-05-25T01:25:22.879Z,4.60
2019-05-25T01:26:02.150Z,5.45
2019-05-25T01:26:48.129Z,4.80
2019-05-25T01:27:28.815Z,5.78
2019-05-25T01:28:08.032Z,5.40
2019-05-25T01:28:47.843Z,5.35
2019-05-25T01:29:26.759Z,5.45
2019-05-25T01:30:06.516Z,4.92
2019-05-25T01:30:46.006Z,4.70
2019-05-25T01:31:24.753Z,5.20
2019-05-25T01:32:04.552Z,4.87
2019-05-25T01:32:44.189Z,5.57
2019-05-25T01:33:23.839Z,4.80
2019-05-25T01:34:05.572Z,5.20
2019-05-25T01:34:46.345Z,4.90
2019-05-25T01:35:25.871Z,5.10
2019-05-25T01:36:05.207Z,4.72
2019-05-25T01:36:44.920Z,4.97
2019-05-25T01:37:23.736Z,5.05
2019-05-25T01:38:03.169Z,4.62
2019-05-25T01:38:42.907Z,5.17
2019-05-25T01:39:26.432Z,5.53
2019-05-25T01:40:05.665Z,5.03
2019-05-25T01:40:54.016Z,5.60
2019-05-25T01:41:33.093Z,6.08
2019-05-25T01:42:13.622Z,5.15
2019-05-25T01:42:53.363Z,5.30
2019-05-25T01:43:32.311Z,5.40
2019-05-25T01:44:13.309Z,4.80
2019-05-25T01:44:52.365Z,5.78
2019-05-25T01:45:31.154Z,4.67
2019-05-25T01:46:10.907Z,5.00
2019-05-25T01:46:50.455Z,5.28
2019-05-25T01:47:31.444Z,5.17
2019-05-25T01:48:11.095Z,5.28
2019-05-25T01:48:50.769Z,5.30
2019-05-25T01:49:29.597Z,5.30
2019-05-25T01:50:09.265Z,5.30
2019-05-25T01:50:49.583Z,5.75
2019-05-25T01:51:29.099Z,4.60
2019-05-25T01:52:08.547Z,5.70
2019-05-25T01:52:48.399Z,4.80
2019-05-25T01:53:29.474Z,5.50
2019-05-25T01:54:08.937Z,5.72
2019-05-25T01:54:59.482Z,5.50
2019-05-25T01:55:29.598Z,5.15
2019-05-25T01:56:09.519Z,5.92
2019-05-25T01:56:48.881Z,5.47
2019-05-25T01:57:27.808Z,5.35
2019-05-25T01:58:07.215Z,6.10
2019-05-25T01:58:46.819Z,6.47
2019-05-25T01:59:26.206Z,5.75
2019-05-25T02:00:08.254Z,5.92
2019-05-25T02:00:48.551Z,5.60
2019-05-25T02:01:27.838Z,5.85
2019-05-25T02:02:08.023Z,5.30
2019-05-25T02:02:47.354Z,5.47
2019-05-25T02:03:26.302Z,5.47
2019-05-25T02:04:06.266Z,6.10
2019-05-25T02:04:45.844Z,5.90
2019-05-25T02:05:24.571Z,6.22
2019-05-25T02:06:04.136Z,6.12
2019-05-25T02:06:43.421Z,6.17
2019-05-25T02:07:22.232Z,5.40
2019-05-25T02:08:04.228Z,6.17
2019-05-25T02:08:43.803Z,5.83
2019-05-25T02:09:22.653Z,5.80
2019-05-25T02:10:02.015Z,7.08
2019-05-25T02:10:41.271Z,6.40
2019-05-25T02:11:20.305Z,6.28
2019-05-25T02:11:59.924Z,6.17
2019-05-25T02:12:40.029Z,5.57
2019-05-25T02:13:19.100Z,6.20
2019-05-25T02:13:58.729Z,6.00
2019-05-25T02:14:37.715Z,6.77
2019-05-25T02:15:16.849Z,6.60
2019-05-25T02:15:56.139Z,7.00
2019-05-25T02:16:35.667Z,6.43
2019-05-25T02:17:14.516Z,6.30
2019-05-25T02:17:53.900Z,6.58
2019-05-25T02:18:33.636Z,6.70
2019-05-25T02:19:12.748Z,6.58
2019-05-25T02:19:51.788Z,6.28
2019-05-25T02:20:31.303Z,6.10
2019-05-25T02:21:10.731Z,6.20
2019-05-25T02:21:50.136Z,6.45
2019-05-25T02:22:29.566Z,6.33
2019-05-25T02:23:08.231Z,6.30
2019-05-25T02:23:47.936Z,6.87
2019-05-25T02:24:27.599Z,6.75
2019-05-25T02:25:16.981Z,6.83
2019-05-25T02:25:47.902Z,6.35
2019-05-25T02:26:27.252Z,6.45
2019-05-25T02:27:06.166Z,6.85
2019-05-25T02:27:45.368Z,6.33
2019-05-25T02:28:24.801Z,6.28
2019-05-25T02:29:04.184Z,6.05
2019-05-25T02:29:43.463Z,7.00
2019-05-25T02:30:24.047Z,6.78
2019-05-25T02:31:02.943Z,6.97
2019-05-25T02:31:43.021Z,6.22
2019-05-25T02:32:23.371Z,6.70
2019-05-25T02:33:02.318Z,6.85
2019-05-25T02:33:41.496Z,6.58
2019-05-25T02:34:20.520Z,6.67
2019-05-25T02:34:59.487Z,6.67
2019-05-25T02:35:40.084Z,6.65
2019-05-25T02:36:20.887Z,6.47
2019-05-25T02:36:59.828Z,7.05
2019-05-25T02:37:38.843Z,7.00
2019-05-25T02:38:18.411Z,6.47
2019-05-25T02:38:57.158Z,6.90
2019-05-25T02:39:36.327Z,6.58
2019-05-25T02:40:15.452Z,6.78
2019-05-25T02:40:54.370Z,6.60
2019-05-25T02:41:33.580Z,6.67
2019-05-25T02:42:13.216Z,6.30
2019-05-25T02:42:52.171Z,7.05
2019-05-25T02:43:31.772Z,6.22
2019-05-25T02:44:11.212Z,6.33
2019-05-25T02:44:50.540Z,7.05
2019-05-25T02:45:30.235Z,6.85
2019-05-25T02:46:09.548Z,6.80
2019-05-25T02:46:48.544Z,7.10
2019-05-25T02:47:28.086Z,6.90
2019-05-25T02:48:07.639Z,6.87
2019-05-25T02:48:46.504Z,7.47
2019-05-25T02:49:26.394Z,6.78
2019-05-25T02:50:06.223Z,6.97
2019-05-25T02:50:45.148Z,6.77
2019-05-25T02:51:24.163Z,6.85
2019-05-25T02:52:03.898Z,7.90
2019-05-25T02:52:42.879Z,6.70
2019-05-25T02:53:22.639Z,6.33
2019-05-25T02:54:02.115Z,8.00
2019-05-25T02:54:41.099Z,6.67
2019-05-25T02:55:33.911Z,6.55
2019-05-25T02:56:01.727Z,7.90
2019-05-25T02:56:40.687Z,6.57
2019-05-25T02:57:19.860Z,7.12
2019-05-25T02:57:59.407Z,6.40
2019-05-25T02:58:38.441Z,6.90
2019-05-25T02:59:18.042Z,7.37
2019-05-25T02:59:57.412Z,6.87
2019-05-25T03:00:36.632Z,7.95
2019-05-25T03:01:16.415Z,7.10
2019-05-25T03:01:55.435Z,7.90
2019-05-25T03:02:34.040Z,7.53
2019-05-25T03:03:13.479Z,7.53
2019-05-25T03:03:53.162Z,7.22
2019-05-25T03:04:32.154Z,7.70
2019-05-25T03:05:13.876Z,7.20
2019-05-25T03:05:53.798Z,7.75
2019-05-25T03:06:32.865Z,7.65
2019-05-25T03:07:12.335Z,7.85
2019-05-25T03:07:51.792Z,7.30
2019-05-25T03:08:30.743Z,8.15
2019-05-25T03:09:10.576Z,6.67
2019-05-25T03:09:49.923Z,6.95
2019-05-25T03:10:29.036Z,7.70
2019-05-25T03:11:08.591Z,8.03
2019-05-25T03:11:47.587Z,7.80
2019-05-25T03:12:26.755Z,7.47
2019-05-25T03:13:06.507Z,6.87
2019-05-25T03:13:46.239Z,6.58
2019-05-25T03:14:24.938Z,7.58
2019-05-25T03:15:04.649Z,7.22
2019-05-25T03:15:44.220Z,7.70
2019-05-25T03:16:22.797Z,8.08
2019-05-25T03:17:04.969Z,7.60
2019-05-25T03:17:44.551Z,6.63
2019-05-25T03:18:23.857Z,6.95
2019-05-25T03:19:04.437Z,7.70
2019-05-25T03:19:43.686Z,7.70
2019-05-25T03:20:22.411Z,7.53
2019-05-25T03:21:02.204Z,7.05
2019-05-25T03:21:42.008Z,7.12
2019-05-25T03:22:21.204Z,7.05
2019-05-25T03:23:00.487Z,7.33
2019-05-25T03:23:39.650Z,6.95
2019-05-25T03:24:18.012Z,7.70
2019-05-25T03:24:57.758Z,7.90
2019-05-25T03:25:49.151Z,7.75
2019-05-25T03:26:23.762Z,6.97
2019-05-25T03:27:03.260Z,6.70
2019-05-25T03:27:42.787Z,7.00
2019-05-25T03:28:22.242Z,6.42
2019-05-25T03:29:01.759Z,6.95
2019-05-25T03:29:41.563Z,7.03
2019-05-25T03:30:28.948Z,6.55
2019-05-25T03:31:08.399Z,6.90
2019-05-25T03:31:47.532Z,6.55
2019-05-25T03:32:25.955Z,7.08
2019-05-25T03:33:11.012Z,7.35
2019-05-25T03:33:58.600Z,7.03
2019-05-25T03:34:37.455Z,7.30
2019-05-25T03:35:28.272Z,6.70
2019-05-25T03:36:15.408Z,6.67
2019-05-25T03:37:14.024Z,7.58
2019-05-25T03:37:53.398Z,7.25
2019-05-25T03:38:32.854Z,7.08
2019-05-25T03:39:15.763Z,7.70
2019-05-25T03:39:55.159Z,7.87
2019-05-25T03:40:34.791Z,7.78
2019-05-25T03:41:13.963Z,7.95
2019-05-25T03:42:02.148Z,7.80
2019-05-25T03:42:42.995Z,6.83
2019-05-25T03:43:21.851Z,7.47
2019-05-25T03:44:01.335Z,7.45
2019-05-25T03:44:40.579Z,8.10
2019-05-25T03:45:24.327Z,7.70
2019-05-25T03:46:03.811Z,7.45
2019-05-25T03:46:45.431Z,7.57
2019-05-25T03:47:24.025Z,7.60
2019-05-25T03:48:03.427Z,8.00
2019-05-25T03:48:42.839Z,7.80
2019-05-25T03:49:21.816Z,8.08
2019-05-25T03:50:01.391Z,7.45
2019-05-25T03:50:40.598Z,8.43
2019-05-25T03:51:19.139Z,7.92
2019-05-25T03:52:03.763Z,8.08
2019-05-25T03:52:43.087Z,7.67
2019-05-25T03:53:22.507Z,7.65
2019-05-25T03:54:01.799Z,7.50
2019-05-25T03:54:41.324Z,7.53
2019-05-25T03:55:20.408Z,7.53
2019-05-25T03:56:06.057Z,8.30
2019-05-25T03:56:40.844Z,7.80
2019-05-25T03:57:26.760Z,7.65
2019-05-25T03:58:06.031Z,8.13
2019-05-25T03:58:45.175Z,8.00
2019-05-25T03:59:25.116Z,7.90
2019-05-25T04:00:04.435Z,7.80
2019-05-25T04:00:44.658Z,8.00
2019-05-25T04:01:23.611Z,7.40
2019-05-25T04:02:02.809Z,7.97
2019-05-25T04:02:42.309Z,8.20
2019-05-25T04:03:21.493Z,7.22
2019-05-25T04:04:01.595Z,7.80
2019-05-25T04:04:41.846Z,7.67
2019-05-25T04:05:21.387Z,7.62
2019-05-25T04:06:01.270Z,7.40
2019-05-25T04:06:41.364Z,7.60
2019-05-25T04:07:19.884Z,8.60
2019-05-25T04:07:58.947Z,8.50
2019-05-25T04:08:38.700Z,8.10
2019-05-25T04:09:18.259Z,7.75
2019-05-25T04:10:05.764Z,8.83
2019-05-25T04:10:45.347Z,9.18
2019-05-25T04:11:24.472Z,8.38
2019-05-25T04:12:04.079Z,8.38
2019-05-25T04:12:43.420Z,8.85
2019-05-25T04:13:22.330Z,7.58
2019-05-25T04:14:01.620Z,8.28
2019-05-25T04:14:41.043Z,7.93
2019-05-25T04:15:19.771Z,9.40
2019-05-25T04:15:59.323Z,8.18
2019-05-25T04:16:38.621Z,8.60
2019-05-25T04:17:17.700Z,8.70
2019-05-25T04:17:57.037Z,8.33
2019-05-25T04:18:36.487Z,9.30
2019-05-25T04:19:15.564Z,9.33
2019-05-25T04:19:55.180Z,8.80
2019-05-25T04:20:34.930Z,9.40
2019-05-25T04:21:14.111Z,9.50
2019-05-25T04:21:53.111Z,10.30
2019-05-25T04:22:32.849Z,10.00
2019-05-25T04:23:11.930Z,9.68
2019-05-25T04:23:51.728Z,9.95
2019-05-25T04:24:31.470Z,9.75
2019-05-25T04:25:10.907Z,10.00
2019-05-25T04:25:55.596Z,9.45
2019-05-25T04:26:35.640Z,9.38
2019-05-25T04:27:15.384Z,11.30
2019-05-25T04:27:54.915Z,9.65
2019-05-25T04:28:34.521Z,9.85
2019-05-25T04:29:13.563Z,9.98
2019-05-25T04:29:52.546Z,8.70
2019-05-25T04:30:32.215Z,10.55
2019-05-25T04:31:11.348Z,10.05
2019-05-25T04:31:51.667Z,9.93
2019-05-25T04:32:31.295Z,9.98
2019-05-25T04:33:10.336Z,10.00
2019-05-25T04:33:53.527Z,10.65
2019-05-25T04:34:32.837Z,10.58
2019-05-25T04:35:11.999Z,11.15
2019-05-25T04:35:51.547Z,10.15
2019-05-25T04:36:30.683Z,10.55
2019-05-25T04:37:09.758Z,10.68
2019-05-25T04:37:52.790Z,10.53
2019-05-25T04:38:32.351Z,9.78
2019-05-25T04:39:12.247Z,10.80
2019-05-25T04:39:51.830Z,9.10
2019-05-25T04:40:31.182Z,10.85
2019-05-25T04:41:10.561Z,10.30
2019-05-25T04:41:50.163Z,10.38
2019-05-25T04:42:29.314Z,10.48
2019-05-25T04:43:08.522Z,9.75
2019-05-25T04:43:47.709Z,9.98
2019-05-25T04:44:27.042Z,10.50
2019-05-25T04:45:06.462Z,9.88
2019-05-25T04:45:45.939Z,10.93
2019-05-25T04:46:25.519Z,9.80
2019-05-25T04:47:04.482Z,9.90
2019-05-25T04:47:44.547Z,10.90
2019-05-25T04:48:23.802Z,11.35
2019-05-25T04:49:02.415Z,10.00
2019-05-25T04:49:41.622Z,10.60
2019-05-25T04:50:21.060Z,10.88
2019-05-25T04:51:00.047Z,10.00
2019-05-25T04:51:39.731Z,10.50
2019-05-25T04:52:22.313Z,10.40
2019-05-25T04:53:00.911Z,9.65
2019-05-25T04:53:40.232Z,10.38
2019-05-25T04:54:19.643Z,9.33
2019-05-25T04:55:04.447Z,10.00
2019-05-25T04:55:44.107Z,10.63
2019-05-25T04:56:38.207Z,10.32
2019-05-25T04:57:04.710Z,10.13
2019-05-25T04:57:44.164Z,10.45
2019-05-25T04:58:23.963Z,10.30
2019-05-25T04:59:03.018Z,10.15
2019-05-25T04:59:42.479Z,10.03
2019-05-25T05:00:22.138Z,9.08
2019-05-25T05:01:01.220Z,9.88
2019-05-25T05:01:40.466Z,9.50
2019-05-25T05:02:26.735Z,10.72
2019-05-25T05:03:05.605Z,10.88
2019-05-25T05:03:45.129Z,9.35
2019-05-25T05:04:27.183Z,10.20
2019-05-25T05:05:08.262Z,9.93
2019-05-25T05:05:47.569Z,9.58
2019-05-25T05:06:27.048Z,9.48
2019-05-25T05:07:05.924Z,9.18
2019-05-25T05:07:45.244Z,9.95
2019-05-25T05:08:25.075Z,10.55
2019-05-25T05:09:05.430Z,10.05
2019-05-25T05:09:45.643Z,10.25
2019-05-25T05:10:24.713Z,9.63
2019-05-25T05:11:03.608Z,10.23
2019-05-25T05:11:42.779Z,8.93
2019-05-25T05:12:22.241Z,9.85
2019-05-25T05:13:00.955Z,9.13
2019-05-25T05:13:40.142Z,9.98
2019-05-25T05:14:19.314Z,9.68
2019-05-25T05:14:58.604Z,9.55
2019-05-25T05:15:38.208Z,9.50
2019-05-25T05:16:17.736Z,8.75
2019-05-25T05:16:56.704Z,9.25
2019-05-25T05:17:36.552Z,9.20
2019-05-25T05:18:16.257Z,8.78
2019-05-25T05:19:01.383Z,8.78
2019-05-25T05:19:40.679Z,9.10
2019-05-25T05:20:20.108Z,9.03
2019-05-25T05:20:59.067Z,8.85
2019-05-25T05:21:38.322Z,9.40
2019-05-25T05:22:17.663Z,9.08
2019-05-25T05:22:56.848Z,9.05
2019-05-25T05:23:36.355Z,8.98
2019-05-25T05:24:16.156Z,8.93
2019-05-25T05:25:02.191Z,9.13
2019-05-25T05:25:48.976Z,8.60
2019-05-25T05:26:31.222Z,9.80
2019-05-25T05:27:10.191Z,9.13
2019-05-25T05:27:56.600Z,9.00
2019-05-25T05:28:35.831Z,9.03
2019-05-25T05:29:14.675Z,9.03
2019-05-25T05:30:04.669Z,8.65
2019-05-25T05:30:46.008Z,8.73
2019-05-25T05:31:24.551Z,8.10
2019-05-25T05:32:03.823Z,8.90
2019-05-25T05:32:46.319Z,9.13
2019-05-25T05:33:25.155Z,8.65
2019-05-25T05:34:05.050Z,8.93
2019-05-25T05:34:51.059Z,8.77
2019-05-25T05:35:38.737Z,8.87
2019-05-25T05:36:16.241Z,8.58
2019-05-25T05:36:55.864Z,8.33
2019-05-25T05:37:34.927Z,9.40
2019-05-25T05:38:14.139Z,8.60
2019-05-25T05:38:53.863Z,8.65
2019-05-25T05:39:32.806Z,8.13
2019-05-25T05:40:12.701Z,8.90
2019-05-25T05:40:52.100Z,8.43
2019-05-25T05:41:31.269Z,9.10
2019-05-25T05:42:10.867Z,8.63
2019-05-25T05:42:50.247Z,8.48
2019-05-25T05:43:31.215Z,7.87
2019-05-25T05:44:10.554Z,8.23
2019-05-25T05:44:50.071Z,8.98
2019-05-25T05:45:29.026Z,8.80
2019-05-25T05:46:08.527Z,9.00
2019-05-25T05:46:47.919Z,8.95
2019-05-25T05:47:27.131Z,7.72
2019-05-25T05:48:24.348Z,8.73
2019-05-25T05:49:05.770Z,8.90
2019-05-25T05:49:44.887Z,8.35
2019-05-25T05:50:24.514Z,9.08
2019-05-25T05:51:04.722Z,8.25
2019-05-25T05:51:49.667Z,7.97
2019-05-25T05:52:29.019Z,8.35
2019-05-25T05:53:08.982Z,8.13
2019-05-25T05:53:47.985Z,7.75
2019-05-25T05:54:27.523Z,7.95
2019-05-25T05:55:07.180Z,8.40
2019-05-25T05:55:54.472Z,8.10
2019-05-25T05:56:41.746Z,8.70
2019-05-25T05:57:29.631Z,8.00
2019-05-25T05:58:08.623Z,8.48
2019-05-25T05:59:08.039Z,8.10
2019-05-25T05:59:49.082Z,8.63
2019-05-25T06:00:27.691Z,9.20
2019-05-25T06:01:07.207Z,8.43
2019-05-25T06:01:46.951Z,9.50
2019-05-25T06:02:25.969Z,8.48
2019-05-25T06:03:05.143Z,8.95
2019-05-25T06:03:44.993Z,8.80
2019-05-25T06:04:23.820Z,8.23
2019-05-25T06:05:03.664Z,8.05
2019-05-25T06:05:43.297Z,7.97
2019-05-25T06:06:22.016Z,8.43
2019-05-25T06:07:01.582Z,7.67
2019-05-25T06:07:41.239Z,8.40
2019-05-25T06:08:20.663Z,8.33
2019-05-25T06:09:00.063Z,7.75
2019-05-25T06:09:39.487Z,8.15
2019-05-25T06:10:18.463Z,8.40
2019-05-25T06:10:57.926Z,8.25
2019-05-25T06:11:37.585Z,8.70
2019-05-25T06:12:16.194Z,7.95
2019-05-25T06:12:55.455Z,7.87
2019-05-25T06:13:34.939Z,8.75
2019-05-25T06:14:13.760Z,7.92
2019-05-25T06:14:58.987Z,8.10
2019-05-25T06:15:38.619Z,7.70
2019-05-25T06:16:17.583Z,8.50
2019-05-25T06:16:57.592Z,7.95
2019-05-25T06:17:37.131Z,8.53
2019-05-25T06:18:16.368Z,8.70
2019-05-25T06:18:55.731Z,7.75
2019-05-25T06:19:36.019Z,7.80
2019-05-25T06:20:14.654Z,8.85
2019-05-25T06:20:55.532Z,8.60
2019-05-25T06:21:35.382Z,9.03
2019-05-25T06:22:14.038Z,7.85
2019-05-25T06:22:53.568Z,8.80
2019-05-25T06:23:33.062Z,8.75
2019-05-25T06:24:11.699Z,8.90
2019-05-25T06:24:51.456Z,9.53
2019-05-25T06:25:31.263Z,8.80
2019-05-25T06:26:10.475Z,8.10
2019-05-25T06:26:49.754Z,8.38
2019-05-25T06:27:28.958Z,8.85
2019-05-25T06:28:07.952Z,8.43
2019-05-25T06:28:47.544Z,8.88
2019-05-25T06:29:27.150Z,7.83
2019-05-25T06:30:05.995Z,9.10
2019-05-25T06:30:45.180Z,7.97
2019-05-25T06:31:24.397Z,7.53
2019-05-25T06:32:03.362Z,8.50
2019-05-25T06:32:42.659Z,8.53
2019-05-25T06:33:22.149Z,8.47
2019-05-25T06:34:01.102Z,9.60
2019-05-25T06:34:40.680Z,9.33
2019-05-25T06:35:20.149Z,9.07
2019-05-25T06:36:46.638Z,9.03
2019-05-25T06:37:26.380Z,8.88
2019-05-25T06:38:05.363Z,8.47
2019-05-25T06:38:45.054Z,9.30
2019-05-25T06:39:24.550Z,9.90
2019-05-25T06:40:21.528Z,9.93
2019-05-25T06:41:01.170Z,9.63
2019-05-25T06:41:41.244Z,8.70
2019-05-25T06:42:20.316Z,8.98
2019-05-25T06:43:00.196Z,9.08
2019-05-25T06:43:40.050Z,9.25
2019-05-25T06:44:18.979Z,9.00
2019-05-25T06:44:58.885Z,8.93
2019-05-25T06:45:38.459Z,9.30
2019-05-25T06:46:17.019Z,9.23
2019-05-25T06:46:57.189Z,10.10
2019-05-25T06:47:36.922Z,8.80
2019-05-25T06:48:15.502Z,9.00
2019-05-25T06:48:55.011Z,9.08
2019-05-25T06:49:34.555Z,9.75
2019-05-25T06:50:15.060Z,9.60
2019-05-25T06:50:54.515Z,8.83
2019-05-25T06:51:34.095Z,9.48
2019-05-25T06:52:13.268Z,8.93
2019-05-25T06:52:52.805Z,9.05
2019-05-25T06:53:32.531Z,9.20
2019-05-25T06:54:11.518Z,9.40
2019-05-25T06:54:51.124Z,9.00
2019-05-25T06:55:30.471Z,9.95
2019-05-25T06:56:09.159Z,8.37
2019-05-25T06:56:48.367Z,9.93
2019-05-25T06:57:42.020Z,9.00
2019-05-25T06:58:08.124Z,8.53
2019-05-25T06:58:47.496Z,8.90
2019-05-25T06:59:27.281Z,10.00
2019-05-25T07:00:06.480Z,10.10
2019-05-25T07:00:45.767Z,9.30
2019-05-25T07:01:25.412Z,9.80
2019-05-25T07:02:04.498Z,10.23
2019-05-25T07:02:44.064Z,9.80
2019-05-25T07:03:23.930Z,10.40
2019-05-25T07:04:03.163Z,10.10
2019-05-25T07:04:42.435Z,10.53
2019-05-25T07:05:21.987Z,10.70
2019-05-25T07:06:01.026Z,9.25
2019-05-25T07:06:40.607Z,9.40
2019-05-25T07:07:19.941Z,9.90
2019-05-25T07:07:58.767Z,9.93
2019-05-25T07:08:38.268Z,10.10
2019-05-25T07:09:17.390Z,9.60
2019-05-25T07:09:56.339Z,9.65
2019-05-25T07:10:35.978Z,9.85
2019-05-25T07:11:15.903Z,9.20
2019-05-25T07:11:54.899Z,10.17
2019-05-25T07:12:34.418Z,9.80
2019-05-25T07:13:20.196Z,9.63
2019-05-25T07:13:59.135Z,9.80
2019-05-25T07:14:38.926Z,9.33
2019-05-25T07:15:18.840Z,9.90
2019-05-25T07:15:58.243Z,11.00
2019-05-25T07:16:37.463Z,10.70
2019-05-25T07:17:17.363Z,10.58
2019-05-25T07:17:56.484Z,9.33
2019-05-25T07:18:36.087Z,9.40
2019-05-25T07:19:15.591Z,10.23
2019-05-25T07:19:54.451Z,10.57
2019-05-25T07:20:34.199Z,9.20
2019-05-25T07:21:13.880Z,9.15
2019-05-25T07:21:52.638Z,9.80
2019-05-25T07:22:32.331Z,9.40
2019-05-25T07:23:12.297Z,10.13
2019-05-25T07:23:50.996Z,10.75
2019-05-25T07:24:30.888Z,10.37
2019-05-25T07:25:10.352Z,10.75
2019-05-25T07:25:50.548Z,10.23
2019-05-25T07:26:30.281Z,10.07
2019-05-25T07:27:09.852Z,10.38
2019-05-25T07:27:58.769Z,10.60
2019-05-25T07:28:30.034Z,10.85
2019-05-25T07:29:09.604Z,10.60
2019-05-25T07:29:48.411Z,11.10
2019-05-25T07:30:28.067Z,10.40
2019-05-25T07:31:07.642Z,10.47
2019-05-25T07:31:46.669Z,10.77
2019-05-25T07:32:26.183Z,10.38
2019-05-25T07:33:06.064Z,10.83
2019-05-25T07:33:44.965Z,10.23
2019-05-25T07:34:24.803Z,10.83
2019-05-25T07:35:04.310Z,10.80
2019-05-25T07:35:43.509Z,10.00
2019-05-25T07:36:23.118Z,10.35
2019-05-25T07:37:02.844Z,10.50
2019-05-25T07:37:41.902Z,10.73
2019-05-25T07:38:20.843Z,10.17
2019-05-25T07:39:00.599Z,11.35
2019-05-25T07:39:40.030Z,10.43
2019-05-25T07:40:19.327Z,10.70
2019-05-25T07:40:58.707Z,10.78
2019-05-25T07:41:37.637Z,10.87
2019-05-25T07:42:19.865Z,10.65
2019-05-25T07:42:58.159Z,10.58
2019-05-25T07:43:37.808Z,11.10
2019-05-25T07:44:16.800Z,10.40
2019-05-25T07:44:56.254Z,11.00
2019-05-25T07:45:34.853Z,10.97
2019-05-25T07:46:17.108Z,10.70
2019-05-25T07:46:55.729Z,10.60
2019-05-25T07:47:35.015Z,10.55
2019-05-25T07:48:14.573Z,9.75
2019-05-25T07:48:54.103Z,10.20
2019-05-25T07:49:33.047Z,10.27
2019-05-25T07:50:12.558Z,10.35
2019-05-25T07:50:51.775Z,10.70
2019-05-25T07:51:30.589Z,11.20
2019-05-25T07:52:10.079Z,9.60
2019-05-25T07:52:49.500Z,9.77
2019-05-25T07:53:28.573Z,10.60
2019-05-25T07:54:07.950Z,11.00
2019-05-25T07:54:47.414Z,10.58
2019-05-25T07:55:26.336Z,10.72
2019-05-25T07:56:05.859Z,10.53
2019-05-25T07:56:45.355Z,10.53
2019-05-25T07:57:24.189Z,9.50
2019-05-25T07:58:16.711Z,10.90
2019-05-25T07:58:44.573Z,10.20
2019-05-25T07:59:23.436Z,10.57
2019-05-25T08:00:02.983Z,10.53
2019-05-25T08:00:42.911Z,10.67
2019-05-25T08:01:22.367Z,10.70
2019-05-25T08:02:01.888Z,11.20
2019-05-25T08:02:41.901Z,10.73
2019-05-25T08:03:20.927Z,11.20
2019-05-25T08:04:00.556Z,11.10
2019-05-25T08:04:40.190Z,10.50
2019-05-25T08:05:18.661Z,10.53
2019-05-25T08:05:58.381Z,10.60
2019-05-25T08:06:37.640Z,10.50
2019-05-25T08:07:16.542Z,10.20
2019-05-25T08:07:55.849Z,10.57
2019-05-25T08:08:35.398Z,10.93
2019-05-25T08:09:14.229Z,11.27
2019-05-25T08:09:53.815Z,11.10
2019-05-25T08:10:33.082Z,10.40
2019-05-25T08:11:11.647Z,11.33
2019-05-25T08:11:51.301Z,10.70
2019-05-25T08:12:30.564Z,11.27
2019-05-25T08:13:09.478Z,10.87
2019-05-25T08:13:49.098Z,11.60
2019-05-25T08:14:28.787Z,10.40
2019-05-25T08:15:07.511Z,11.47
2019-05-25T08:15:47.043Z,11.37
2019-05-25T08:16:26.467Z,11.30
2019-05-25T08:17:05.478Z,11.40
2019-05-25T08:17:45.319Z,12.00
2019-05-25T08:18:24.927Z,10.35
2019-05-25T08:19:04.084Z,10.77
2019-05-25T08:19:43.748Z,11.77
2019-05-25T08:20:23.308Z,11.63
2019-05-25T08:21:02.430Z,11.23
2019-05-25T08:21:41.800Z,11.53
2019-05-25T08:22:21.556Z,11.30
2019-05-25T08:23:00.706Z,11.83
2019-05-25T08:23:40.098Z,11.07
2019-05-25T08:24:19.332Z,11.80
2019-05-25T08:24:58.571Z,11.12
2019-05-25T08:25:38.370Z,10.50
2019-05-25T08:26:17.491Z,11.43
2019-05-25T08:26:56.569Z,11.70
2019-05-25T08:27:35.619Z,11.40
2019-05-25T08:28:31.283Z,10.78
2019-05-25T08:28:56.370Z,11.00
2019-05-25T08:29:35.742Z,12.07
2019-05-25T08:30:15.764Z,11.80
2019-05-25T08:30:54.559Z,11.40
2019-05-25T08:31:34.748Z,11.80
2019-05-25T08:32:14.071Z,11.37
2019-05-25T08:32:53.509Z,12.30
2019-05-25T08:33:33.261Z,10.90
2019-05-25T08:34:12.535Z,11.37
2019-05-25T08:34:50.959Z,11.90
2019-05-25T08:35:30.438Z,12.33
2019-05-25T08:36:10.234Z,11.67
2019-05-25T08:36:49.255Z,11.87
2019-05-25T08:37:28.835Z,11.50
2019-05-25T08:38:07.853Z,11.40
2019-05-25T08:38:46.798Z,11.40
2019-05-25T08:39:26.373Z,11.73
2019-05-25T08:40:06.016Z,12.00
2019-05-25T08:40:45.183Z,12.70
2019-05-25T08:41:24.692Z,11.10
2019-05-25T08:42:04.698Z,12.30
2019-05-25T08:42:43.251Z,11.60
2019-05-25T08:43:23.567Z,11.63
2019-05-25T08:44:04.577Z,12.33
2019-05-25T08:44:42.936Z,11.37
2019-05-25T08:45:25.312Z,11.60
2019-05-25T08:46:03.325Z,10.80
2019-05-25T08:46:42.424Z,11.10
2019-05-25T08:47:21.967Z,12.13
2019-05-25T08:48:01.592Z,11.00
2019-05-25T08:48:40.835Z,10.63